createdAt,value
2023-05-15T00:02:26.911Z,12.46
2023-05-15T00:05:29.946Z,12.49
2023-05-15T00:08:33.130Z,12.54
2023-05-15T00:11:36.278Z,12.52
2023-05-15T00:14:39.217Z,12.52
2023-05-15T00:17:42.356Z,12.50
2023-05-15T00:20:45.629Z,12.49
2023-05-15T00:23:48.902Z,12.51
2023-05-15T00:26:52.519Z,12.52
2023-05-15T00:29:55.818Z,12.52
2023-05-15T00:32:59.228Z,12.50
2023-05-15T00:36:02.405Z,12.47
2023-05-15T00:39:05.481Z,12.47
2023-05-15T00:42:09.411Z,12.46
2023-05-15T00:45:14.371Z,12.50
2023-05-15T00:48:18.405Z,12.53
2023-05-15T00:51:21.615Z,12.54
2023-05-15T00:54:25.292Z,12.52
2023-05-15T00:57:29.424Z,12.56
2023-05-15T01:00:34.104Z,12.54
2023-05-15T01:03:38.046Z,12.55
2023-05-15T01:06:41.451Z,12.58
2023-05-15T01:09:47.684Z,12.57
2023-05-15T01:12:54.427Z,12.54
2023-05-15T01:15:58.650Z,12.57
2023-05-15T01:19:02.261Z,12.55
2023-05-15T01:23:06.392Z,12.56
2023-05-15T01:26:15.559Z,12.55
2023-05-15T01:29:53.456Z,12.54
2023-05-15T01:33:26.305Z,12.51
2023-05-15T01:36:53.640Z,12.56
2023-05-15T01:40:01.484Z,12.54
2023-05-15T01:43:10.038Z,12.53
2023-05-15T01:46:20.000Z,12.53
2023-05-15T01:49:26.618Z,12.55
2023-05-15T01:52:34.017Z,12.54
2023-05-15T01:55:38.990Z,12.52
2023-05-15T01:58:44.652Z,12.50
2023-05-15T02:01:48.277Z,12.46
2023-05-15T02:04:52.944Z,12.50
2023-05-15T02:07:57.012Z,12.44
2023-05-15T02:11:01.747Z,12.38
2023-05-15T02:14:06.237Z,12.40
2023-05-15T02:17:09.598Z,12.38
2023-05-15T02:20:12.976Z,12.41
2023-05-15T02:23:16.051Z,12.41
2023-05-15T02:27:10.775Z,12.37
2023-05-15T02:30:38.576Z,12.35
2023-05-15T02:34:17.386Z,12.31
2023-05-15T02:37:28.640Z,12.35
2023-05-15T02:40:33.878Z,12.34
2023-05-15T02:43:37.632Z,12.36
2023-05-15T02:46:42.130Z,12.35
2023-05-15T02:49:49.310Z,12.37
2023-05-15T02:53:01.293Z,12.39
2023-05-15T02:56:05.030Z,12.39
2023-05-15T02:59:08.092Z,12.40
2023-05-15T03:02:11.251Z,12.33
2023-05-15T03:05:14.244Z,12.37
2023-05-15T03:08:17.501Z,12.34
2023-05-15T03:11:21.485Z,12.32
2023-05-15T03:14:24.959Z,12.30
2023-05-15T03:17:28.033Z,12.37
2023-05-15T03:20:31.285Z,12.37
2023-05-15T03:23:36.376Z,12.31
2023-05-15T03:26:42.574Z,12.30
2023-05-15T03:29:45.946Z,12.20
2023-05-15T03:32:49.266Z,12.26
2023-05-15T03:35:53.029Z,12.27
2023-05-15T03:38:56.074Z,12.34
2023-05-15T03:41:59.284Z,12.34
2023-05-15T03:45:02.234Z,12.31
2023-05-15T03:48:05.981Z,12.31
2023-05-15T03:51:08.972Z,12.27
2023-05-15T03:54:11.967Z,12.31
2023-05-15T03:57:14.807Z,12.27
2023-05-15T04:00:19.122Z,12.31
2023-05-15T04:03:24.360Z,12.28
2023-05-15T04:06:27.436Z,12.15
2023-05-15T04:09:31.500Z,12.16
2023-05-15T04:12:35.767Z,12.16
2023-05-15T04:15:38.896Z,12.19
2023-05-15T04:18:42.286Z,12.20
2023-05-15T04:21:45.831Z,12.23
2023-05-15T04:24:48.963Z,12.19
2023-05-15T04:27:52.254Z,12.25
2023-05-15T04:30:55.410Z,12.28
2023-05-15T04:33:58.740Z,12.30
2023-05-15T04:37:01.929Z,12.34
2023-05-15T04:40:09.137Z,12.34
2023-05-15T04:43:12.307Z,12.36
2023-05-15T04:46:15.244Z,12.42
2023-05-15T04:49:18.121Z,12.49
2023-05-15T04:52:21.114Z,12.53
2023-05-15T04:55:24.639Z,12.56
2023-05-15T04:58:28.193Z,12.53
2023-05-15T05:01:31.414Z,12.53
2023-05-15T05:04:34.390Z,12.63
2023-05-15T05:07:37.506Z,12.66
2023-05-15T05:10:41.147Z,12.76
2023-05-15T05:13:44.456Z,12.77
2023-05-15T05:16:51.497Z,12.86
2023-05-15T05:19:54.876Z,12.80
2023-05-15T05:22:57.797Z,12.89
2023-05-15T05:26:01.050Z,12.98
2023-05-15T05:29:04.576Z,13.06
2023-05-15T05:32:08.750Z,13.10
2023-05-15T05:35:12.092Z,13.26
2023-05-15T05:38:15.514Z,13.31
2023-05-15T05:41:18.458Z,13.37
2023-05-15T05:44:21.471Z,13.43
2023-05-15T05:47:24.543Z,13.44
2023-05-15T05:50:28.143Z,13.48
2023-05-15T05:53:31.517Z,13.55
2023-05-15T05:56:35.075Z,13.58
2023-05-15T05:59:38.325Z,13.72
2023-05-15T06:02:42.456Z,14.02
2023-05-15T06:05:46.374Z,14.39
2023-05-15T06:08:50.013Z,14.62
2023-05-15T06:11:53.257Z,14.87
2023-05-15T06:14:56.720Z,15.08
2023-05-15T06:17:59.967Z,15.19
2023-05-15T06:21:06.438Z,15.04
2023-05-15T06:24:09.594Z,14.95
2023-05-15T06:27:12.946Z,14.91
2023-05-15T06:30:16.381Z,14.87
2023-05-15T06:33:19.582Z,14.94
2023-05-15T06:36:23.245Z,14.99
2023-05-15T06:39:26.491Z,14.89
2023-05-15T06:42:29.981Z,14.89
2023-05-15T06:45:33.451Z,15.05
2023-05-15T06:48:37.073Z,15.16
2023-05-15T06:51:40.298Z,15.13
2023-05-15T06:54:43.784Z,15.18
2023-05-15T06:57:47.098Z,15.08
2023-05-15T07:00:50.365Z,14.97
2023-05-15T07:03:53.787Z,15.05
2023-05-15T07:06:58.522Z,15.06
2023-05-15T07:10:01.934Z,15.16
2023-05-15T07:13:05.662Z,15.22
2023-05-15T07:16:09.361Z,15.48
2023-05-15T07:19:13.602Z,15.63
2023-05-15T07:22:16.922Z,15.62
2023-05-15T07:25:20.140Z,15.51
2023-05-15T07:28:23.306Z,15.64
2023-05-15T07:31:26.625Z,15.77
2023-05-15T07:34:29.597Z,15.87
2023-05-15T07:37:32.967Z,15.88
2023-05-15T07:40:36.383Z,16.00
2023-05-15T07:43:39.682Z,16.38
2023-05-15T07:46:43.155Z,16.46
2023-05-15T07:49:46.574Z,16.32
2023-05-15T07:52:49.592Z,16.33
2023-05-15T07:55:52.603Z,16.32
2023-05-15T07:58:55.455Z,16.32
2023-05-15T08:01:58.708Z,15.95
2023-05-15T08:05:01.727Z,15.87
2023-05-15T08:08:05.697Z,15.80
2023-05-15T08:11:08.659Z,15.87
2023-05-15T08:14:13.808Z,15.94
2023-05-15T08:17:17.555Z,15.99
2023-05-15T08:20:20.976Z,16.17
2023-05-15T08:23:23.869Z,16.25
2023-05-15T08:26:27.396Z,16.21
2023-05-15T08:29:30.810Z,16.37
2023-05-15T08:32:34.050Z,16.44
2023-05-15T08:35:37.235Z,16.55
2023-05-15T08:38:40.527Z,16.85
2023-05-15T08:42:14.962Z,16.73
2023-05-15T08:45:19.267Z,16.60
2023-05-15T08:48:27.723Z,16.51
2023-05-15T08:51:31.054Z,16.30
2023-05-15T08:54:35.397Z,15.98
2023-05-15T08:57:39.356Z,16.13
2023-05-15T09:00:43.532Z,16.28
2023-05-15T09:03:47.195Z,16.58
2023-05-15T09:06:50.617Z,16.73
2023-05-15T09:09:55.845Z,16.96
2023-05-15T09:13:02.068Z,17.22
2023-05-15T09:16:07.393Z,17.30
2023-05-15T09:19:11.503Z,17.55
2023-05-15T09:22:23.384Z,17.83
2023-05-15T09:25:39.974Z,17.95
2023-05-15T09:28:43.794Z,17.84
2023-05-15T09:31:48.208Z,17.77
2023-05-15T09:34:51.759Z,17.60
2023-05-15T09:38:02.679Z,17.45
2023-05-15T09:41:07.564Z,17.42
2023-05-15T09:44:30.809Z,17.20
2023-05-15T09:47:34.263Z,17.09
2023-05-15T09:50:39.563Z,17.06
2023-05-15T09:53:42.823Z,17.01
2023-05-15T09:56:47.461Z,16.99
2023-05-15T09:59:50.817Z,16.91
2023-05-15T10:02:57.875Z,16.88
2023-05-15T10:06:02.206Z,16.76
2023-05-15T10:09:06.489Z,16.82
2023-05-15T10:12:10.036Z,16.69
2023-05-15T10:15:15.009Z,16.67
2023-05-15T10:18:21.970Z,16.62
2023-05-15T10:21:27.362Z,16.62
2023-05-15T10:24:32.940Z,16.65
2023-05-15T10:27:39.071Z,16.95
2023-05-15T10:30:42.693Z,17.31
2023-05-15T10:33:47.525Z,17.76
2023-05-15T10:36:51.576Z,18.44
2023-05-15T10:39:56.392Z,18.65
2023-05-15T10:43:03.273Z,18.59
2023-05-15T10:46:06.904Z,18.32
2023-05-15T10:49:10.436Z,18.31
2023-05-15T10:52:13.677Z,18.51
2023-05-15T10:55:18.039Z,18.34
2023-05-15T10:58:24.789Z,18.16
2023-05-15T11:01:32.653Z,17.97
2023-05-15T11:04:36.715Z,17.66
2023-05-15T11:07:40.006Z,17.57
2023-05-15T11:10:43.210Z,17.55
2023-05-15T11:14:10.779Z,17.54
2023-05-15T11:17:17.869Z,17.54
2023-05-15T11:20:35.165Z,17.54
2023-05-15T11:23:41.828Z,17.66
2023-05-15T11:26:44.902Z,17.79
2023-05-15T11:30:23.616Z,17.51
2023-05-15T11:33:31.840Z,17.30
2023-05-15T11:36:39.962Z,17.21
2023-05-15T11:39:44.640Z,17.25
2023-05-15T11:43:07.496Z,17.33
2023-05-15T11:46:12.953Z,17.46
2023-05-15T11:49:19.467Z,17.47
2023-05-15T11:52:25.021Z,17.47
2023-05-15T11:55:29.646Z,17.44
2023-05-15T11:58:33.127Z,17.29
2023-05-15T12:01:41.579Z,17.39
2023-05-15T12:04:45.087Z,17.43
2023-05-15T12:07:48.394Z,17.39
2023-05-15T12:10:51.964Z,17.50
2023-05-15T12:13:55.463Z,17.51
2023-05-15T12:17:05.107Z,18.12
2023-05-15T12:20:11.667Z,18.70
2023-05-15T12:23:17.367Z,19.12
2023-05-15T12:26:24.835Z,19.39
2023-05-15T12:29:28.765Z,18.89
2023-05-15T12:32:33.926Z,18.51
2023-05-15T12:35:41.538Z,18.37
2023-05-15T12:38:44.774Z,18.66
2023-05-15T12:41:50.313Z,18.57
2023-05-15T12:44:55.960Z,18.91
2023-05-15T12:47:59.605Z,19.28
2023-05-15T12:51:07.839Z,19.58
2023-05-15T12:54:21.295Z,19.64
2023-05-15T12:57:24.671Z,19.83
2023-05-15T13:00:31.042Z,20.10
2023-05-15T13:03:34.548Z,20.13
2023-05-15T13:06:46.803Z,20.25
2023-05-15T13:10:06.341Z,20.14
2023-05-15T13:13:09.442Z,20.02
2023-05-15T13:16:24.838Z,19.87
2023-05-15T13:19:27.718Z,19.92
2023-05-15T13:22:30.862Z,19.97
2023-05-15T13:25:34.271Z,19.88
2023-05-15T13:28:37.242Z,19.74
2023-05-15T13:31:40.283Z,19.83
2023-05-15T13:34:43.568Z,19.63
2023-05-15T13:37:47.550Z,19.29
2023-05-15T13:40:50.857Z,19.38
2023-05-15T13:43:54.157Z,19.34
2023-05-15T13:46:57.162Z,19.46
2023-05-15T13:50:00.190Z,19.31
2023-05-15T13:53:03.282Z,18.93
2023-05-15T13:56:06.514Z,18.87
2023-05-15T13:59:09.413Z,18.84
2023-05-15T14:02:12.535Z,18.72
2023-05-15T14:05:16.586Z,18.66
2023-05-15T14:08:19.795Z,18.56
2023-05-15T14:11:22.989Z,18.41
2023-05-15T14:14:26.460Z,18.31
2023-05-15T14:17:29.607Z,18.28
2023-05-15T14:20:32.881Z,18.30
2023-05-15T14:23:35.989Z,18.20
2023-05-15T14:26:39.012Z,18.16
2023-05-15T14:29:42.127Z,18.07
2023-05-15T14:32:45.554Z,18.08
2023-05-15T14:35:48.497Z,17.98
2023-05-15T14:38:51.940Z,17.94
2023-05-15T14:41:56.005Z,17.85
2023-05-15T14:44:59.247Z,17.83
2023-05-15T14:48:02.296Z,17.86
2023-05-15T14:51:06.136Z,17.96
2023-05-15T14:54:09.497Z,17.96
2023-05-15T14:57:12.777Z,17.96
2023-05-15T15:00:16.513Z,17.92
2023-05-15T15:03:20.859Z,17.94
2023-05-15T15:06:24.109Z,17.97
2023-05-15T15:09:28.909Z,18.03
2023-05-15T15:12:32.534Z,18.08
2023-05-15T15:15:37.960Z,18.14
2023-05-15T15:18:41.351Z,18.03
2023-05-15T15:21:45.247Z,18.09
2023-05-15T15:24:51.168Z,18.08
2023-05-15T15:27:54.494Z,18.14
2023-05-15T15:30:57.455Z,18.20
2023-05-15T15:34:02.352Z,18.29
2023-05-15T15:37:06.781Z,18.41
2023-05-15T15:40:09.849Z,18.50
2023-05-15T15:43:13.140Z,18.51
2023-05-15T15:46:16.492Z,18.42
2023-05-15T15:49:19.757Z,18.43
2023-05-15T15:52:22.836Z,18.42
2023-05-15T15:55:28.052Z,18.33
2023-05-15T15:58:31.147Z,18.33
2023-05-15T16:01:34.368Z,18.28
2023-05-15T16:04:37.600Z,18.34
2023-05-15T16:10:58.226Z,18.26
2023-05-15T16:14:01.764Z,18.20
2023-05-15T16:17:05.605Z,18.11
2023-05-15T16:20:10.168Z,18.07
2023-05-15T16:23:15.719Z,18.10
2023-05-15T16:26:18.855Z,17.98
2023-05-15T16:29:25.455Z,18.00
2023-05-15T16:32:29.151Z,17.96
2023-05-15T16:35:32.420Z,17.99
2023-05-15T16:38:35.502Z,17.90
2023-05-15T16:41:38.796Z,17.76
2023-05-15T16:44:41.637Z,17.70
2023-05-15T16:47:44.813Z,17.64
2023-05-15T16:50:48.291Z,17.60
2023-05-15T16:53:54.012Z,17.53
2023-05-15T16:56:57.166Z,17.41
2023-05-15T17:00:00.303Z,17.40
2023-05-15T17:03:05.160Z,17.33
2023-05-15T17:06:08.442Z,17.29
2023-05-15T17:09:11.680Z,17.27
2023-05-15T17:12:15.056Z,17.25
2023-05-15T17:15:18.295Z,17.17
2023-05-15T17:18:22.196Z,17.16
2023-05-15T17:21:25.260Z,17.08
2023-05-15T17:24:42.300Z,16.98
2023-05-15T17:27:52.390Z,16.88
2023-05-15T17:30:55.918Z,16.82
2023-05-15T17:33:59.045Z,16.77
2023-05-15T17:37:02.607Z,16.69
2023-05-15T17:40:06.470Z,16.68
2023-05-15T17:43:10.519Z,16.61
2023-05-15T17:46:13.891Z,16.54
2023-05-15T17:49:17.380Z,16.47
2023-05-15T17:52:20.480Z,16.45
2023-05-15T17:55:23.575Z,16.34
2023-05-15T17:58:27.093Z,16.30
2023-05-15T18:01:30.989Z,16.23
2023-05-15T18:04:34.561Z,16.17
2023-05-15T18:07:37.728Z,16.14
2023-05-15T18:10:40.929Z,16.10
2023-05-15T18:13:44.433Z,16.03
2023-05-15T18:16:47.369Z,16.00
2023-05-15T18:19:50.721Z,15.94
2023-05-15T18:22:53.921Z,15.86
2023-05-15T18:25:57.315Z,15.84
2023-05-15T18:29:00.937Z,15.77
2023-05-15T18:32:04.534Z,15.72
2023-05-15T18:35:08.691Z,15.75
2023-05-15T18:38:11.937Z,15.73
2023-05-15T18:41:14.990Z,15.54
2023-05-15T18:44:18.119Z,15.47
2023-05-15T18:47:21.470Z,15.33
2023-05-15T18:50:25.076Z,15.30
2023-05-15T18:53:28.160Z,15.29
2023-05-15T18:56:31.491Z,15.36
2023-05-15T18:59:34.997Z,15.32
2023-05-15T19:02:40.367Z,15.22
2023-05-15T19:05:43.376Z,15.19
2023-05-15T19:08:48.172Z,15.17
2023-05-15T19:11:52.486Z,15.10
2023-05-15T19:14:56.186Z,15.07
2023-05-15T19:17:59.575Z,15.06
2023-05-15T19:21:02.879Z,15.09
2023-05-15T19:24:06.817Z,15.08
2023-05-15T19:27:10.193Z,15.03
2023-05-15T19:30:13.623Z,15.09
2023-05-15T19:33:18.252Z,15.00
2023-05-15T19:36:22.310Z,14.96
2023-05-15T19:39:28.339Z,14.99
2023-05-15T19:42:31.853Z,15.00
2023-05-15T19:45:34.768Z,15.02
2023-05-15T19:48:37.834Z,15.01
2023-05-15T19:51:46.525Z,14.95
2023-05-15T19:54:49.533Z,14.90
2023-05-15T19:57:55.818Z,14.85
2023-05-15T20:00:59.190Z,14.79
2023-05-15T20:04:02.572Z,14.74
2023-05-15T20:07:05.810Z,14.72
2023-05-15T20:10:09.588Z,14.64
2023-05-15T20:18:02.347Z,14.58
2023-05-15T20:21:06.623Z,14.56
2023-05-15T20:24:10.450Z,14.59
2023-05-15T20:27:13.340Z,14.47
2023-05-15T20:30:16.549Z,14.35
2023-05-15T20:33:19.850Z,14.32
2023-05-15T20:36:25.682Z,14.37
2023-05-15T20:39:28.784Z,14.32
2023-05-15T20:42:34.438Z,14.24
2023-05-15T20:45:38.004Z,14.24
2023-05-15T20:48:41.324Z,14.15
2023-05-15T20:51:44.696Z,14.13
2023-05-15T20:54:47.807Z,14.14
2023-05-15T20:57:50.775Z,14.09
2023-05-15T21:00:53.674Z,14.12
2023-05-15T21:03:56.832Z,14.07
2023-05-15T21:06:59.805Z,14.12
2023-05-15T21:10:02.981Z,14.02
2023-05-15T21:13:06.165Z,14.00
2023-05-15T21:16:09.681Z,13.98
2023-05-15T21:19:13.004Z,14.00
2023-05-15T21:22:16.203Z,14.03
2023-05-15T21:25:19.384Z,14.07
2023-05-15T21:28:22.401Z,14.13
2023-05-15T21:31:29.043Z,14.13
2023-05-15T21:34:32.688Z,14.14
2023-05-15T21:37:35.675Z,14.13
2023-05-15T21:40:39.234Z,14.18
2023-05-15T21:43:42.473Z,14.18
2023-05-15T21:46:45.511Z,14.17
2023-05-15T21:49:48.941Z,14.19
2023-05-15T21:52:52.356Z,14.20
2023-05-15T21:55:59.342Z,14.16
2023-05-15T21:59:02.452Z,14.19
2023-05-15T22:02:06.499Z,14.19
2023-05-15T22:05:09.839Z,14.16
2023-05-15T22:08:14.151Z,14.11
2023-05-15T22:11:17.546Z,14.07
2023-05-15T22:14:20.613Z,13.98
2023-05-15T22:17:24.054Z,13.89
2023-05-15T22:20:27.170Z,13.91
2023-05-15T22:23:30.252Z,13.81
2023-05-15T22:26:33.505Z,13.76
2023-05-15T22:29:36.741Z,13.77
2023-05-15T22:32:41.384Z,13.65
2023-05-15T22:35:44.608Z,13.68
2023-05-15T22:38:47.536Z,13.62
2023-05-15T22:41:50.806Z,13.63
2023-05-15T22:44:57.952Z,13.54
2023-05-15T22:48:02.044Z,13.52
2023-05-15T22:51:05.317Z,13.43
2023-05-15T22:54:08.220Z,13.42
2023-05-15T22:57:11.366Z,13.45
2023-05-15T23:00:15.116Z,13.51
2023-05-15T23:03:18.199Z,13.54
2023-05-15T23:06:21.442Z,13.55
2023-05-15T23:09:24.351Z,13.60
2023-05-15T23:12:27.789Z,13.61
2023-05-15T23:15:30.908Z,13.64
2023-05-15T23:18:34.013Z,13.69
2023-05-15T23:21:38.057Z,13.72
2023-05-15T23:24:41.359Z,13.74
2023-05-15T23:27:44.821Z,13.80
2023-05-15T23:30:48.321Z,13.82
2023-05-15T23:33:51.954Z,13.87
2023-05-15T23:36:54.844Z,13.89
2023-05-15T23:39:57.909Z,13.91
2023-05-15T23:43:01.361Z,13.94
2023-05-15T23:46:04.453Z,13.94
2023-05-15T23:49:07.817Z,13.92
2023-05-15T23:52:14.579Z,13.98
2023-05-15T23:55:17.584Z,14.02
2023-05-15T23:58:21.582Z,13.94
